createdAt,value
2022-10-19T00:01:05.977Z,74.87
2022-10-19T00:03:34.854Z,76.03
2022-10-19T00:06:29.515Z,75.35
2022-10-19T00:09:00.782Z,74.11
2022-10-19T00:11:29.745Z,74.52
2022-10-19T00:13:58.549Z,74.35
2022-10-19T00:16:31.735Z,73.25
2022-10-19T00:19:04.595Z,73.91
2022-10-19T00:21:32.005Z,74.68
2022-10-19T00:23:59.089Z,74.50
2022-10-19T00:26:27.918Z,73.52
2022-10-19T00:28:56.326Z,75.95
2022-10-19T00:31:24.123Z,77.00
2022-10-19T00:33:51.264Z,76.31
2022-10-19T00:36:34.057Z,75.77
2022-10-19T00:39:01.637Z,74.02
2022-10-19T00:41:31.847Z,74.77
2022-10-19T00:44:00.657Z,74.11
2022-10-19T00:46:30.515Z,74.93
2022-10-19T00:49:10.894Z,75.04
2022-10-19T00:51:42.583Z,74.34
2022-10-19T00:54:10.168Z,74.74
2022-10-19T00:56:40.831Z,73.66
2022-10-19T00:59:09.433Z,73.53
2022-10-19T01:01:36.830Z,74.69
2022-10-19T01:04:04.855Z,75.40
2022-10-19T01:06:33.368Z,75.16
2022-10-19T01:09:00.430Z,75.23
2022-10-19T01:11:49.060Z,74.80
2022-10-19T01:14:53.501Z,73.83
2022-10-19T01:17:40.700Z,74.36
2022-10-19T01:20:42.547Z,74.23
2022-10-19T01:23:31.599Z,74.42
2022-10-19T01:26:19.741Z,74.17
2022-10-19T01:28:58.669Z,73.96
2022-10-19T01:31:31.623Z,73.63
2022-10-19T01:34:04.508Z,73.37
2022-10-19T01:37:08.567Z,74.32
2022-10-19T01:39:44.288Z,74.21
2022-10-19T01:42:23.221Z,75.07
2022-10-19T01:44:56.773Z,75.63
2022-10-19T01:47:30.960Z,75.38
2022-10-19T01:50:10.178Z,77.52
2022-10-19T01:52:39.712Z,79.10
2022-10-19T01:55:09.819Z,78.57
2022-10-19T01:57:41.955Z,78.85
2022-10-19T02:00:12.369Z,78.24
2022-10-19T02:02:45.337Z,77.31
2022-10-19T02:05:13.544Z,76.82
2022-10-19T02:07:45.216Z,76.76
2022-10-19T02:10:12.395Z,77.28
2022-10-19T02:12:41.663Z,78.07
2022-10-19T02:15:17.390Z,77.26
2022-10-19T02:17:48.977Z,77.69
2022-10-19T02:20:17.095Z,77.47
2022-10-19T02:22:44.733Z,78.85
2022-10-19T02:25:12.950Z,79.34
2022-10-19T02:27:43.932Z,78.77
2022-10-19T02:30:17.469Z,77.26
2022-10-19T02:32:44.778Z,77.59
2022-10-19T02:35:14.655Z,76.84
2022-10-19T02:37:42.302Z,76.89
2022-10-19T02:40:10.492Z,76.99
2022-10-19T02:42:56.123Z,77.32
2022-10-19T02:45:33.812Z,78.97
2022-10-19T02:48:28.992Z,77.94
2022-10-19T02:50:56.084Z,77.91
2022-10-19T02:53:23.248Z,79.09
2022-10-19T02:55:51.745Z,78.19
2022-10-19T02:58:18.865Z,78.72
2022-10-19T03:00:45.934Z,79.66
2022-10-19T03:03:13.056Z,78.83
2022-10-19T03:05:40.209Z,79.35
2022-10-19T03:08:07.329Z,79.58
2022-10-19T03:10:34.479Z,78.88
2022-10-19T03:13:01.540Z,79.21
2022-10-19T03:15:30.027Z,78.87
2022-10-19T03:17:57.305Z,79.10
2022-10-19T03:20:24.543Z,79.51
2022-10-19T03:25:23.787Z,79.13
2022-10-19T03:27:53.514Z,81.19
2022-10-19T03:30:20.566Z,80.46
2022-10-19T03:32:47.645Z,82.47
2022-10-19T03:35:14.720Z,81.95
2022-10-19T03:37:41.804Z,81.65
2022-10-19T03:40:09.391Z,81.17
2022-10-19T03:42:36.608Z,81.48
2022-10-19T03:45:04.216Z,82.09
2022-10-19T03:47:31.807Z,81.61
2022-10-19T03:49:59.048Z,80.95
2022-10-19T03:52:26.175Z,80.58
2022-10-19T03:54:53.271Z,80.04
2022-10-19T03:57:20.380Z,78.88
2022-10-19T03:59:47.448Z,80.08
2022-10-19T04:02:14.464Z,81.29
2022-10-19T04:04:41.536Z,82.46
2022-10-19T04:07:08.567Z,82.27
2022-10-19T04:09:35.657Z,82.11
2022-10-19T04:12:03.475Z,82.06
2022-10-19T04:14:45.805Z,82.20
2022-10-19T04:17:20.066Z,83.61
2022-10-19T04:19:47.127Z,82.91
2022-10-19T04:22:14.139Z,82.24
2022-10-19T04:24:41.264Z,83.04
2022-10-19T04:27:08.333Z,83.74
2022-10-19T04:29:35.429Z,83.44
2022-10-19T04:32:02.512Z,84.61
2022-10-19T04:34:29.575Z,82.53
2022-10-19T04:36:59.546Z,81.94
2022-10-19T04:39:26.815Z,82.76
2022-10-19T04:41:53.950Z,81.99
2022-10-19T04:44:21.231Z,82.72
2022-10-19T04:46:48.320Z,82.79
2022-10-19T04:49:17.964Z,83.18
2022-10-19T04:51:49.167Z,82.97
2022-10-19T04:54:16.223Z,82.98
2022-10-19T04:56:43.783Z,83.42
2022-10-19T04:59:10.939Z,83.81
2022-10-19T05:01:40.430Z,83.70
2022-10-19T05:04:10.311Z,83.60
2022-10-19T05:06:38.199Z,84.70
2022-10-19T05:09:05.337Z,85.48
2022-10-19T05:11:32.358Z,85.19
2022-10-19T05:13:59.397Z,84.91
2022-10-19T05:16:26.557Z,85.41
2022-10-19T05:18:59.733Z,84.72
2022-10-19T05:21:28.847Z,85.42
2022-10-19T05:23:56.970Z,85.88
2022-10-19T05:26:27.281Z,85.88
2022-10-19T05:28:57.703Z,84.77
2022-10-19T05:31:27.674Z,86.01
2022-10-19T05:33:56.464Z,88.12
2022-10-19T05:36:29.345Z,87.02
2022-10-19T05:38:57.675Z,86.82
2022-10-19T05:41:26.449Z,87.97
2022-10-19T05:43:58.739Z,89.05
2022-10-19T05:46:27.617Z,90.44
2022-10-19T05:48:55.916Z,91.61
2022-10-19T05:51:24.034Z,92.15
2022-10-19T05:53:53.525Z,91.56
2022-10-19T05:56:23.780Z,91.16
2022-10-19T05:58:51.810Z,90.29
2022-10-19T06:01:20.033Z,90.38
2022-10-19T06:03:50.839Z,89.84
2022-10-19T06:06:18.210Z,88.21
2022-10-19T06:08:45.773Z,89.11
2022-10-19T06:11:16.826Z,89.89
2022-10-19T06:13:46.142Z,89.68
2022-10-19T06:16:15.562Z,88.84
2022-10-19T06:18:43.010Z,88.33
2022-10-19T06:21:16.519Z,89.43
2022-10-19T06:23:43.928Z,89.77
2022-10-19T06:26:13.378Z,88.55
2022-10-19T06:28:41.900Z,89.30
2022-10-19T06:31:09.819Z,89.90
2022-10-19T06:33:38.937Z,89.72
2022-10-19T06:36:13.817Z,89.10
2022-10-19T06:38:41.998Z,87.74
2022-10-19T06:41:10.030Z,86.52
2022-10-19T06:43:37.238Z,87.58
2022-10-19T06:46:09.949Z,88.03
2022-10-19T06:48:37.154Z,88.80
2022-10-19T06:51:07.519Z,89.16
2022-10-19T06:53:35.462Z,87.99
2022-10-19T06:56:04.569Z,87.15
2022-10-19T06:58:35.260Z,87.83
2022-10-19T07:01:02.480Z,88.23
2022-10-19T07:03:30.205Z,88.54
2022-10-19T07:06:00.462Z,87.75
2022-10-19T07:08:29.977Z,88.74
2022-10-19T07:11:00.210Z,88.22
2022-10-19T07:13:28.830Z,88.60
2022-10-19T07:16:19.794Z,88.66
2022-10-19T07:18:53.010Z,88.20
2022-10-19T07:21:22.281Z,89.72
2022-10-19T07:23:49.786Z,89.80
2022-10-19T07:26:21.466Z,91.16
2022-10-19T07:28:49.324Z,90.84
2022-10-19T07:31:20.245Z,90.89
2022-10-19T07:33:51.439Z,91.54
2022-10-19T07:36:18.489Z,91.73
2022-10-19T07:38:45.550Z,92.89
2022-10-19T07:41:15.488Z,92.02
2022-10-19T07:43:45.174Z,91.44
2022-10-19T07:46:15.515Z,92.25
2022-10-19T07:48:43.934Z,92.54
2022-10-19T07:51:12.402Z,92.66
2022-10-19T07:53:41.110Z,92.46
2022-10-19T07:56:11.527Z,93.66
2022-10-19T07:58:39.008Z,93.48
2022-10-19T08:01:12.136Z,92.89
2022-10-19T08:06:27.701Z,92.59
2022-10-19T08:08:55.378Z,91.75
2022-10-19T08:11:24.396Z,92.17
2022-10-19T08:13:52.271Z,94.11
2022-10-19T08:16:44.535Z,92.00
2022-10-19T08:19:13.991Z,92.83
2022-10-19T08:21:44.192Z,92.63
2022-10-19T08:24:13.543Z,92.29
2022-10-19T08:26:41.843Z,92.10
2022-10-19T08:29:18.106Z,92.40
2022-10-19T08:31:46.668Z,93.29
2022-10-19T08:34:14.589Z,94.86
2022-10-19T08:39:14.524Z,93.15
2022-10-19T08:41:53.259Z,93.77
2022-10-19T08:44:52.044Z,95.53
2022-10-19T08:47:31.369Z,94.58
2022-10-19T08:49:59.879Z,93.76
2022-10-19T08:52:36.048Z,93.14
2022-10-19T08:55:19.796Z,93.53
2022-10-19T08:57:53.691Z,94.86
2022-10-19T09:03:54.433Z,93.76
2022-10-19T09:06:45.594Z,93.33
2022-10-19T09:09:14.043Z,92.10
2022-10-19T09:11:49.179Z,91.60
2022-10-19T09:14:23.051Z,91.25
2022-10-19T09:16:50.116Z,90.74
2022-10-19T09:19:26.307Z,91.53
2022-10-19T09:21:57.771Z,92.21
2022-10-19T09:24:51.929Z,92.15
2022-10-19T09:27:30.236Z,90.42
2022-10-19T09:29:59.432Z,88.40
2022-10-19T09:32:38.597Z,88.59
2022-10-19T09:35:41.164Z,89.02
2022-10-19T09:38:08.487Z,89.81
2022-10-19T09:40:35.755Z,89.36
2022-10-19T09:43:19.581Z,88.38
2022-10-19T09:45:58.511Z,88.99
2022-10-19T09:48:47.883Z,88.41
2022-10-19T09:51:16.835Z,88.65
2022-10-19T09:53:50.023Z,88.80
2022-10-19T09:56:25.391Z,88.52
2022-10-19T09:58:57.753Z,88.29
2022-10-19T10:01:41.518Z,86.67
2022-10-19T10:04:14.546Z,86.80
2022-10-19T10:06:43.323Z,86.53
2022-10-19T10:09:17.625Z,85.76
2022-10-19T10:11:48.144Z,86.77
2022-10-19T10:14:23.679Z,85.24
2022-10-19T10:16:56.490Z,84.63
2022-10-19T10:19:28.895Z,84.42
2022-10-19T10:21:58.147Z,85.73
2022-10-19T10:24:28.595Z,85.57
2022-10-19T10:26:56.930Z,86.02
2022-10-19T10:29:28.102Z,85.41
2022-10-19T10:32:04.030Z,85.29
2022-10-19T10:34:50.071Z,84.78
2022-10-19T10:37:28.252Z,84.58
2022-10-19T10:40:00.334Z,84.80
2022-10-19T10:42:43.903Z,85.22
2022-10-19T10:45:20.379Z,84.51
2022-10-19T10:47:48.597Z,84.71
2022-10-19T10:50:22.462Z,83.93
2022-10-19T10:53:29.638Z,86.02
2022-10-19T10:55:57.469Z,85.50
2022-10-19T10:58:37.264Z,87.01
2022-10-19T11:01:13.301Z,87.88
2022-10-19T11:03:46.753Z,88.02
2022-10-19T11:06:17.142Z,87.85
2022-10-19T11:08:44.173Z,85.90
2022-10-19T11:11:17.269Z,85.87
2022-10-19T11:13:50.020Z,83.67
2022-10-19T11:16:19.895Z,82.51
2022-10-19T11:19:22.942Z,82.43
2022-10-19T11:22:26.392Z,82.63
2022-10-19T11:25:12.513Z,81.43
2022-10-19T11:27:56.159Z,84.60
2022-10-19T11:30:25.200Z,86.08
2022-10-19T11:33:01.556Z,86.83
2022-10-19T11:35:39.265Z,86.10
2022-10-19T11:38:30.078Z,85.19
2022-10-19T11:41:22.224Z,84.70
2022-10-19T11:43:58.452Z,85.98
2022-10-19T11:46:54.840Z,84.58
2022-10-19T11:49:27.536Z,83.91
2022-10-19T11:51:58.631Z,84.31
2022-10-19T11:54:43.666Z,83.36
2022-10-19T11:57:19.559Z,83.17
2022-10-19T12:00:08.147Z,83.82
2022-10-19T12:02:53.492Z,81.47
2022-10-19T12:05:35.616Z,79.88
2022-10-19T12:08:07.589Z,81.86
2022-10-19T12:11:23.696Z,80.14
2022-10-19T12:13:56.084Z,80.03
2022-10-19T12:16:31.006Z,80.73
2022-10-19T12:19:01.049Z,79.45
2022-10-19T12:21:30.004Z,80.75
2022-10-19T12:24:03.769Z,80.59
2022-10-19T12:26:35.506Z,78.79
2022-10-19T12:29:07.425Z,80.36
2022-10-19T12:31:36.110Z,80.42
2022-10-19T12:34:23.369Z,80.23
2022-10-19T12:36:55.055Z,82.13
2022-10-19T12:39:49.854Z,81.52
2022-10-19T12:42:26.337Z,81.66
2022-10-19T12:45:21.241Z,81.72
2022-10-19T12:48:13.110Z,81.76
2022-10-19T12:50:49.454Z,81.88
2022-10-19T12:53:44.670Z,80.49
2022-10-19T12:56:19.875Z,80.06
2022-10-19T12:58:50.869Z,81.29
2022-10-19T13:01:24.132Z,81.38
2022-10-19T13:04:16.329Z,81.62
2022-10-19T13:06:51.443Z,79.46
2022-10-19T13:09:33.811Z,78.73
2022-10-19T13:12:19.617Z,79.58
2022-10-19T13:14:58.938Z,80.45
2022-10-19T13:17:37.863Z,80.66
2022-10-19T13:20:14.408Z,78.40
2022-10-19T13:22:41.671Z,78.53
2022-10-19T13:25:28.087Z,78.84
2022-10-19T13:28:07.716Z,79.78
2022-10-19T13:30:43.234Z,79.14
2022-10-19T13:33:25.687Z,79.97
2022-10-19T13:36:13.514Z,79.75
2022-10-19T13:38:58.611Z,79.22
2022-10-19T13:41:46.904Z,79.72
2022-10-19T13:44:15.273Z,80.72
2022-10-19T13:46:55.537Z,80.40
2022-10-19T13:49:53.330Z,80.38
2022-10-19T13:52:26.499Z,78.32
2022-10-19T13:55:28.694Z,79.49
2022-10-19T13:58:17.696Z,78.40
2022-10-19T14:01:31.263Z,78.67
2022-10-19T14:04:24.238Z,79.34
2022-10-19T14:07:00.547Z,80.33
2022-10-19T14:09:37.333Z,80.33
2022-10-19T14:12:10.216Z,80.52
2022-10-19T14:14:44.842Z,80.30
2022-10-19T14:17:42.408Z,81.08
2022-10-19T14:20:42.039Z,81.30
2022-10-19T14:23:25.947Z,81.40
2022-10-19T14:26:05.646Z,81.15
2022-10-19T14:28:33.944Z,80.82
2022-10-19T14:31:03.972Z,81.30
2022-10-19T14:33:35.209Z,80.82
2022-10-19T14:36:02.806Z,79.44
2022-10-19T14:38:43.441Z,80.34
2022-10-19T14:41:29.214Z,80.33
2022-10-19T14:43:58.254Z,80.76
2022-10-19T14:46:33.523Z,81.03
2022-10-19T14:49:03.325Z,79.41
2022-10-19T14:51:33.353Z,79.15
2022-10-19T14:54:24.852Z,79.08
2022-10-19T14:57:08.273Z,78.43
2022-10-19T15:02:21.761Z,77.50
2022-10-19T15:04:49.979Z,77.15
2022-10-19T15:07:30.308Z,76.83
2022-10-19T15:10:01.249Z,75.26
2022-10-19T15:12:38.029Z,75.83
2022-10-19T15:15:28.021Z,76.50
2022-10-19T15:17:57.085Z,76.32
2022-10-19T15:20:28.121Z,75.40
2022-10-19T15:22:56.857Z,75.62
2022-10-19T15:25:29.678Z,75.09
2022-10-19T15:27:57.789Z,73.93
2022-10-19T15:30:31.508Z,74.40
2022-10-19T15:33:02.918Z,75.13
2022-10-19T15:35:33.268Z,73.61
2022-10-19T15:38:05.075Z,72.98
2022-10-19T15:40:35.509Z,74.49
2022-10-19T15:43:34.294Z,75.25
2022-10-19T15:46:04.397Z,74.79
2022-10-19T15:48:40.442Z,76.45
2022-10-19T15:51:23.245Z,76.30
2022-10-19T15:54:00.892Z,76.46
2022-10-19T15:56:30.608Z,76.67
2022-10-19T15:58:59.792Z,78.75
2022-10-19T16:01:29.481Z,81.24
2022-10-19T16:03:57.514Z,81.15
2022-10-19T16:06:30.241Z,81.90
2022-10-19T16:08:58.813Z,82.75
2022-10-19T16:11:27.088Z,83.11
2022-10-19T16:13:54.133Z,82.68
2022-10-19T16:16:26.807Z,82.99
2022-10-19T16:18:55.072Z,84.74
2022-10-19T16:21:25.704Z,85.34
2022-10-19T16:23:53.214Z,85.20
2022-10-19T16:26:21.156Z,85.33
2022-10-19T16:28:48.861Z,85.84
2022-10-19T16:31:17.079Z,86.55
2022-10-19T16:33:44.654Z,86.42
2022-10-19T16:36:13.117Z,86.77
2022-10-19T16:38:40.569Z,87.92
2022-10-19T16:41:10.180Z,88.31
2022-10-19T16:43:38.060Z,88.45
2022-10-19T16:46:05.925Z,88.35
2022-10-19T16:48:33.458Z,89.37
2022-10-19T16:51:10.425Z,89.11
2022-10-19T16:53:38.385Z,89.05
2022-10-19T16:56:08.092Z,88.13
2022-10-19T16:58:37.197Z,87.81
2022-10-19T17:01:17.981Z,87.77
2022-10-19T17:03:46.275Z,87.12
2022-10-19T17:06:14.405Z,86.17
2022-10-19T17:09:23.247Z,86.40
2022-10-19T17:11:34.139Z,86.14
2022-10-19T17:14:04.039Z,84.78
2022-10-19T17:16:33.192Z,84.18
2022-10-19T17:19:02.990Z,83.47
2022-10-19T17:21:32.313Z,83.32
2022-10-19T17:24:01.600Z,82.59
2022-10-19T17:26:37.917Z,84.50
2022-10-19T17:29:06.407Z,84.71
2022-10-19T17:31:33.637Z,85.66
2022-10-19T17:34:01.983Z,86.51
2022-10-19T17:36:32.013Z,88.29
2022-10-19T17:39:02.009Z,87.74
2022-10-19T17:41:29.623Z,87.09
2022-10-19T17:43:57.202Z,86.41
2022-10-19T17:46:27.515Z,86.26
2022-10-19T17:48:54.941Z,85.22
2022-10-19T17:51:24.917Z,86.70
2022-10-19T17:53:55.422Z,86.78
2022-10-19T17:56:23.857Z,88.16
2022-10-19T17:58:51.359Z,88.38
2022-10-19T18:01:20.251Z,87.74
2022-10-19T18:03:48.681Z,86.72
2022-10-19T18:06:24.651Z,85.93
2022-10-19T18:08:54.903Z,86.23
2022-10-19T18:11:23.400Z,85.01
2022-10-19T18:13:51.600Z,84.63
2022-10-19T18:16:23.093Z,84.78
2022-10-19T18:18:53.277Z,84.30
2022-10-19T18:21:32.432Z,83.47
2022-10-19T18:24:35.481Z,84.18
2022-10-19T18:27:21.117Z,83.74
2022-10-19T18:29:52.701Z,82.66
2022-10-19T18:32:20.523Z,83.45
2022-10-19T18:34:47.712Z,84.84
2022-10-19T18:37:14.749Z,82.93
2022-10-19T18:39:41.856Z,82.46
2022-10-19T18:42:12.106Z,82.17
2022-10-19T18:44:39.394Z,82.30
2022-10-19T18:47:06.472Z,82.43
2022-10-19T18:49:33.655Z,81.38
2022-10-19T18:52:00.705Z,80.46
2022-10-19T18:54:28.199Z,81.73
2022-10-19T18:56:55.581Z,82.37
2022-10-19T18:59:23.159Z,83.04
2022-10-19T19:01:50.509Z,82.08
2022-10-19T19:04:17.636Z,81.64
2022-10-19T19:06:44.749Z,80.75
2022-10-19T19:09:13.106Z,81.43
2022-10-19T19:11:41.172Z,82.57
2022-10-19T19:14:14.296Z,81.81
2022-10-19T19:16:42.940Z,82.13
2022-10-19T19:19:12.072Z,83.21
2022-10-19T19:21:41.846Z,83.10
2022-10-19T19:24:10.520Z,82.22
2022-10-19T19:26:40.446Z,81.55
2022-10-19T19:29:08.175Z,82.36
2022-10-19T19:31:35.762Z,81.91
2022-10-19T19:34:05.878Z,80.29
2022-10-19T19:36:33.016Z,80.09
2022-10-19T19:39:00.245Z,80.76
2022-10-19T19:41:28.945Z,79.83
2022-10-19T19:43:58.071Z,78.55
2022-10-19T19:46:26.526Z,78.11
2022-10-19T19:49:01.814Z,78.25
2022-10-19T19:51:30.848Z,78.41
2022-10-19T19:53:58.847Z,78.88
2022-10-19T19:56:26.539Z,78.85
2022-10-19T19:58:58.116Z,79.61
2022-10-19T20:01:25.694Z,80.17
2022-10-19T20:03:52.889Z,80.15
2022-10-19T20:06:23.589Z,78.48
2022-10-19T20:08:54.594Z,79.16
2022-10-19T20:11:22.900Z,78.21
2022-10-19T20:13:50.369Z,77.89
2022-10-19T20:16:23.789Z,78.81
2022-10-19T20:19:00.290Z,78.75
2022-10-19T20:21:27.813Z,78.08
2022-10-19T20:23:54.927Z,77.39
2022-10-19T20:26:25.404Z,76.71
2022-10-19T20:28:53.119Z,75.70
2022-10-19T20:31:21.033Z,76.89
2022-10-19T20:33:48.433Z,76.11
2022-10-19T20:36:22.164Z,75.60
2022-10-19T20:38:54.643Z,75.21
2022-10-19T20:41:24.312Z,75.12
2022-10-19T20:43:53.747Z,76.44
2022-10-19T20:46:26.961Z,75.28
2022-10-19T20:48:55.988Z,74.26
2022-10-19T20:51:31.603Z,74.75
2022-10-19T20:54:02.014Z,75.27
2022-10-19T20:56:35.312Z,75.50
2022-10-19T20:59:07.686Z,76.23
2022-10-19T21:01:37.197Z,75.76
2022-10-19T21:04:06.434Z,74.72
2022-10-19T21:06:37.138Z,75.83
2022-10-19T21:09:04.589Z,76.15
2022-10-19T21:11:34.790Z,76.76
2022-10-19T21:14:13.844Z,75.27
2022-10-19T21:16:41.494Z,73.66
2022-10-19T21:19:17.898Z,73.96
2022-10-19T21:21:48.963Z,75.57
2022-10-19T21:24:20.334Z,74.40
2022-10-19T21:26:47.698Z,74.67
2022-10-19T21:29:16.198Z,75.89
2022-10-19T21:31:49.385Z,76.65
2022-10-19T21:34:29.744Z,75.77
2022-10-19T21:36:57.361Z,76.27
2022-10-19T21:39:24.517Z,75.84
2022-10-19T21:41:51.631Z,76.93
2022-10-19T21:44:19.382Z,76.27
2022-10-19T21:46:49.718Z,76.57
2022-10-19T21:49:16.982Z,76.42
2022-10-19T21:51:52.078Z,76.75
2022-10-19T21:54:22.158Z,77.55
2022-10-19T21:56:49.502Z,77.50
2022-10-19T21:59:17.319Z,76.80
2022-10-19T22:01:44.429Z,76.63
2022-10-19T22:04:14.106Z,76.14
2022-10-19T22:06:42.148Z,76.21
2022-10-19T22:09:12.304Z,76.18
2022-10-19T22:11:39.562Z,75.83
2022-10-19T22:14:06.724Z,74.74
2022-10-19T22:16:36.976Z,73.66
2022-10-19T22:19:05.766Z,74.33
2022-10-19T22:21:34.139Z,73.53
2022-10-19T22:24:05.507Z,74.04
2022-10-19T22:26:41.807Z,74.52
2022-10-19T22:29:09.038Z,73.96
2022-10-19T22:31:38.902Z,73.61
2022-10-19T22:34:11.082Z,74.42
2022-10-19T22:36:38.763Z,75.39
2022-10-19T22:39:06.932Z,74.94
2022-10-19T22:41:33.970Z,75.13
2022-10-19T22:44:01.141Z,73.93
2022-10-19T22:46:28.248Z,74.96
2022-10-19T22:48:55.335Z,76.04
2022-10-19T22:51:22.446Z,76.54
2022-10-19T22:53:49.478Z,77.39
2022-10-19T22:56:16.526Z,76.55
2022-10-19T22:58:43.571Z,76.13
2022-10-19T23:01:13.440Z,77.15
2022-10-19T23:03:40.941Z,77.14
2022-10-19T23:06:09.755Z,77.07
2022-10-19T23:08:37.595Z,76.95
2022-10-19T23:11:05.118Z,77.21
2022-10-19T23:13:32.361Z,77.55
2022-10-19T23:15:59.394Z,77.30
2022-10-19T23:18:26.615Z,76.08
2022-10-19T23:20:55.554Z,75.79
2022-10-19T23:23:23.136Z,75.83
2022-10-19T23:26:10.909Z,75.05
2022-10-19T23:28:40.536Z,76.71
2022-10-19T23:31:12.810Z,76.35
2022-10-19T23:33:40.630Z,76.36
2022-10-19T23:36:12.890Z,76.56
2022-10-19T23:38:40.522Z,75.37
2022-10-19T23:41:07.854Z,74.38
2022-10-19T23:46:07.346Z,74.44
2022-10-19T23:48:35.475Z,73.80
2022-10-19T23:51:08.389Z,74.49
2022-10-19T23:53:40.767Z,74.10
2022-10-19T23:56:29.477Z,73.64
2022-10-19T23:58:56.945Z,73.86
